Needles, California
Current Conditions -  °F | °C
As of 12:56 PM on Friday 21 Nov 2014 (Local Time) from KEED Reporting Station
Clear Clear  
Wind Chill: 73°   Ceiling: Unl
Heat Index: 73°   Visibility: 10mi
Dew Point: 15°   Wind: 6mph
Humidity: 11%   Direction: 30°NNE
Pressure: 29.9"   Gusts: NA
Location:  34.84°N, 114.6°W
Report Text: KEED 212056Z AUTO 03005KT 10SM CLR 23/M09 A2990 RMK AO2 SLP106 T02281094 58017
Loading
Personal Weather Stations






























Interactive Weather Map New forecast layout! Learn more

10-Day Weather Forecast

Advertisements
Track Severe Weather on mobile